sensor_id;sensor_type;location;lat;lon;timestamp;pressure;altitude;pressure_sealevel;temperature;humidity
49583;BME280;36329;48.816;44.624;2023-03-11T00:00:46;100551;;;8.5;100
49583;BME280;36329;48.816;44.624;2023-03-11T00:03:48;100555;;;8.4;100
49583;BME280;36329;48.816;44.624;2023-03-11T00:06:52;100555;;;8.4;100
49583;BME280;36329;48.816;44.624;2023-03-11T00:09:54;100551;;;8.4;100
49583;BME280;36329;48.816;44.624;2023-03-11T00:12:57;100547;;;8.6;100
49583;BME280;36329;48.816;44.624;2023-03-11T00:15:59;100547;;;8.7;100
49583;BME280;36329;48.816;44.624;2023-03-11T00:19:02;100553;;;8.9;100
49583;BME280;36329;48.816;44.624;2023-03-11T00:22:09;100551;;;8.9;100
49583;BME280;36329;48.816;44.624;2023-03-11T00:25:12;100549;;;9.1;99.5
49583;BME280;36329;48.816;44.624;2023-03-11T00:28:16;100551;;;9.1;98.9
49583;BME280;36329;48.816;44.624;2023-03-11T00:31:19;100550;;;9.1;98.5
49583;BME280;36329;48.816;44.624;2023-03-11T00:34:21;100553;;;9.1;98.6
49583;BME280;36329;48.816;44.624;2023-03-11T00:37:28;100555;;;8.9;99.7
49583;BME280;36329;48.816;44.624;2023-03-11T00:40:42;100554;;;9.1;97.1
49583;BME280;36329;48.816;44.624;2023-03-11T00:43:47;100555;;;9.2;96.7
49583;BME280;36329;48.816;44.624;2023-03-11T00:46:49;100562;;;9.1;95.7
49583;BME280;36329;48.816;44.624;2023-03-11T00:49:51;100561;;;9.1;94.9
49583;BME280;36329;48.816;44.624;2023-03-11T00:52:54;100563;;;8.8;97.3
49583;BME280;36329;48.816;44.624;2023-03-11T00:55:56;100578;;;8.9;97.6
49583;BME280;36329;48.816;44.624;2023-03-11T00:58:59;100582;;;8.9;98.6
49583;BME280;36329;48.816;44.624;2023-03-11T01:02:02;100587;;;8.5;100
49583;BME280;36329;48.816;44.624;2023-03-11T01:05:04;100583;;;8.4;100
49583;BME280;36329;48.816;44.624;2023-03-11T01:08:06;100593;;;8.5;100
49583;BME280;36329;48.816;44.624;2023-03-11T01:11:09;100590;;;8.4;100
49583;BME280;36329;48.816;44.624;2023-03-11T01:14:11;100581;;;8.5;99.3
49583;BME280;36329;48.816;44.624;2023-03-11T01:17:13;100579;;;8.7;98.6
49583;BME280;36329;48.816;44.624;2023-03-11T01:20:15;100586;;;8.6;98.3
49583;BME280;36329;48.816;44.624;2023-03-11T01:23:23;100594;;;8.6;96.7
49583;BME280;36329;48.816;44.624;2023-03-11T01:26:31;100603;;;8.6;95.4
49583;BME280;36329;48.816;44.624;2023-03-11T01:29:33;100599;;;8.5;96.6
49583;BME280;36329;48.816;44.624;2023-03-11T01:32:36;100609;;;8.4;98
49583;BME280;36329;48.816;44.624;2023-03-11T01:35:37;100616;;;8.4;98.1
49583;BME280;36329;48.816;44.624;2023-03-11T01:38:39;100612;;;8.3;99.7
49583;BME280;36329;48.816;44.624;2023-03-11T01:41:41;100623;;;8.4;98.8
49583;BME280;36329;48.816;44.624;2023-03-11T01:44:43;100628;;;8.5;98.1
49583;BME280;36329;48.816;44.624;2023-03-11T01:47:45;100633;;;8.5;96.2
49583;BME280;36329;48.816;44.624;2023-03-11T01:50:49;100630;;;8.5;96.3
49583;BME280;36329;48.816;44.624;2023-03-11T01:53:52;100634;;;8.6;96.3
49583;BME280;36329;48.816;44.624;2023-03-11T01:56:57;100642;;;8.5;97.3
49583;BME280;36329;48.816;44.624;2023-03-11T02:00:07;100640;;;8.4;96.9
49583;BME280;36329;48.816;44.624;2023-03-11T02:03:16;100640;;;8.4;98
49583;BME280;36329;48.816;44.624;2023-03-11T02:06:22;100637;;;8.5;98.6
49583;BME280;36329;48.816;44.624;2023-03-11T02:09:39;100641;;;8.5;98.6
49583;BME280;36329;48.816;44.624;2023-03-11T02:12:44;100638;;;8.6;97.3
49583;BME280;36329;48.816;44.624;2023-03-11T02:15:47;100637;;;8.6;100
49583;BME280;36329;48.816;44.624;2023-03-11T02:18:50;100642;;;8.6;100
49583;BME280;36329;48.816;44.624;2023-03-11T02:21:53;100645;;;8.6;99.8
49583;BME280;36329;48.816;44.624;2023-03-11T02:25:02;100646;;;8.7;98.2
49583;BME280;36329;48.816;44.624;2023-03-11T02:28:09;100653;;;8.8;100
49583;BME280;36329;48.816;44.624;2023-03-11T02:31:13;100648;;;8.9;100
49583;BME280;36329;48.816;44.624;2023-03-11T02:34:21;100648;;;8.7;100
49583;BME280;36329;48.816;44.624;2023-03-11T02:37:26;100646;;;8.8;100
49583;BME280;36329;48.816;44.624;2023-03-11T02:40:38;100642;;;8.7;100
49583;BME280;36329;48.816;44.624;2023-03-11T02:43:45;100636;;;8.3;100
49583;BME280;36329;48.816;44.624;2023-03-11T02:46:48;100641;;;8.1;100
49583;BME280;36329;48.816;44.624;2023-03-11T02:49:51;100640;;;7.9;100
49583;BME280;36329;48.816;44.624;2023-03-11T02:52:54;100637;;;7.9;100
49583;BME280;36329;48.816;44.624;2023-03-11T02:56:02;100647;;;7.7;100
49583;BME280;36329;48.816;44.624;2023-03-11T02:59:06;100645;;;7.5;100
49583;BME280;36329;48.816;44.624;2023-03-11T03:02:09;100643;;;7.5;100
49583;BME280;36329;48.816;44.624;2023-03-11T03:05:17;100650;;;7.4;100
49583;BME280;36329;48.816;44.624;2023-03-11T03:08:31;100644;;;7.2;100
49583;BME280;36329;48.816;44.624;2023-03-11T03:11:34;100649;;;7.3;100
49583;BME280;36329;48.816;44.624;2023-03-11T03:14:43;100653;;;7.6;100
49583;BME280;36329;48.816;44.624;2023-03-11T03:17:45;100649;;;7.5;100
49583;BME280;36329;48.816;44.624;2023-03-11T03:20:47;100652;;;7.5;100
49583;BME280;36329;48.816;44.624;2023-03-11T03:23:49;100652;;;7.5;100
49583;BME280;36329;48.816;44.624;2023-03-11T03:26:51;100656;;;7.3;100
49583;BME280;36329;48.816;44.624;2023-03-11T03:29:53;100650;;;7.3;100
49583;BME280;36329;48.816;44.624;2023-03-11T03:32:56;100651;;;7.1;100
49583;BME280;36329;48.816;44.624;2023-03-11T03:35:58;100650;;;7.1;100
49583;BME280;36329;48.816;44.624;2023-03-11T03:39:01;100649;;;7;100
49583;BME280;36329;48.816;44.624;2023-03-11T03:42:05;100652;;;6.9;100
49583;BME280;36329;48.816;44.624;2023-03-11T03:45:10;100658;;;6.9;100
49583;BME280;36329;48.816;44.624;2023-03-11T03:48:12;100666;;;6.8;100
49583;BME280;36329;48.816;44.624;2023-03-11T03:51:16;100677;;;6.9;100
49583;BME280;36329;48.816;44.624;2023-03-11T03:54:19;100685;;;6.9;100
49583;BME280;36329;48.816;44.624;2023-03-11T03:57:21;100689;;;7.1;100
49583;BME280;36329;48.816;44.624;2023-03-11T04:00:25;100693;;;7.1;100
49583;BME280;36329;48.816;44.624;2023-03-11T04:03:27;100692;;;6.9;100
49583;BME280;36329;48.816;44.624;2023-03-11T04:06:35;100696;;;6.9;100
49583;BME280;36329;48.816;44.624;2023-03-11T04:09:50;100707;;;6.9;100
49583;BME280;36329;48.816;44.624;2023-03-11T04:12:53;100704;;;6.7;100
49583;BME280;36329;48.816;44.624;2023-03-11T04:15:55;100715;;;6.8;100
49583;BME280;36329;48.816;44.624;2023-03-11T04:19:12;100718;;;6.9;100
49583;BME280;36329;48.816;44.624;2023-03-11T04:22:24;100717;;;7;100
49583;BME280;36329;48.816;44.624;2023-03-11T04:25:27;100724;;;6.9;100
49583;BME280;36329;48.816;44.624;2023-03-11T04:28:34;100720;;;6.9;100
49583;BME280;36329;48.816;44.624;2023-03-11T04:31:39;100724;;;6.6;100
49583;BME280;36329;48.816;44.624;2023-03-11T04:34:46;100723;;;6.8;100
49583;BME280;36329;48.816;44.624;2023-03-11T04:37:54;100721;;;6.9;100
49583;BME280;36329;48.816;44.624;2023-03-11T04:40:59;100724;;;6.9;100
49583;BME280;36329;48.816;44.624;2023-03-11T04:44:06;100723;;;6.8;100
49583;BME280;36329;48.816;44.624;2023-03-11T04:47:09;100726;;;6.8;100
49583;BME280;36329;48.816;44.624;2023-03-11T04:50:17;100733;;;6.7;100
49583;BME280;36329;48.816;44.624;2023-03-11T04:53:20;100744;;;6.8;100
49583;BME280;36329;48.816;44.624;2023-03-11T04:56:23;100747;;;6.6;100
49583;BME280;36329;48.816;44.624;2023-03-11T04:59:30;100733;;;6.5;100
49583;BME280;36329;48.816;44.624;2023-03-11T05:02:34;100739;;;6.4;100
49583;BME280;36329;48.816;44.624;2023-03-11T05:05:37;100741;;;6.3;100
49583;BME280;36329;48.816;44.624;2023-03-11T05:08:45;100747;;;6.2;100
49583;BME280;36329;48.816;44.624;2023-03-11T05:11:49;100752;;;6;100
49583;BME280;36329;48.816;44.624;2023-03-11T05:14:51;100758;;;6.1;100
49583;BME280;36329;48.816;44.624;2023-03-11T05:17:53;100764;;;6.2;100
49583;BME280;36329;48.816;44.624;2023-03-11T05:20:57;100760;;;6.2;100
49583;BME280;36329;48.816;44.624;2023-03-11T05:24:10;100757;;;6.1;100
49583;BME280;36329;48.816;44.624;2023-03-11T05:27:24;100752;;;6;100
49583;BME280;36329;48.816;44.624;2023-03-11T05:30:43;100733;;;5.9;100
49583;BME280;36329;48.816;44.624;2023-03-11T05:33:51;100758;;;6;100
49583;BME280;36329;48.816;44.624;2023-03-11T05:36:56;100766;;;6;100
49583;BME280;36329;48.816;44.624;2023-03-11T05:39:59;100771;;;6.1;100
49583;BME280;36329;48.816;44.624;2023-03-11T05:43:09;100760;;;6.1;100
49583;BME280;36329;48.816;44.624;2023-03-11T05:46:12;100766;;;6;100
49583;BME280;36329;48.816;44.624;2023-03-11T05:49:34;100766;;;5.9;100
49583;BME280;36329;48.816;44.624;2023-03-11T05:52:37;100763;;;6;100
49583;BME280;36329;48.816;44.624;2023-03-11T05:55:39;100770;;;6.1;100
49583;BME280;36329;48.816;44.624;2023-03-11T05:58:48;100771;;;6.2;100
49583;BME280;36329;48.816;44.624;2023-03-11T06:01:58;100773;;;6.3;100
49583;BME280;36329;48.816;44.624;2023-03-11T06:05:12;100774;;;6.3;100
49583;BME280;36329;48.816;44.624;2023-03-11T06:08:24;100770;;;6.4;100
49583;BME280;36329;48.816;44.624;2023-03-11T06:11:35;100770;;;6.4;100
49583;BME280;36329;48.816;44.624;2023-03-11T06:14:51;100777;;;6.4;100
49583;BME280;36329;48.816;44.624;2023-03-11T06:18:02;100772;;;6.4;100
49583;BME280;36329;48.816;44.624;2023-03-11T06:21:15;100768;;;6.6;100
49583;BME280;36329;48.816;44.624;2023-03-11T06:24:24;100783;;;6.6;100
49583;BME280;36329;48.816;44.624;2023-03-11T06:27:26;100789;;;6.6;100
49583;BME280;36329;48.816;44.624;2023-03-11T06:30:36;100785;;;6.9;100
49583;BME280;36329;48.816;44.624;2023-03-11T06:33:42;100785;;;6.7;100
49583;BME280;36329;48.816;44.624;2023-03-11T06:37:10;100787;;;6.9;100
49583;BME280;36329;48.816;44.624;2023-03-11T06:40:23;100781;;;7;100
49583;BME280;36329;48.816;44.624;2023-03-11T06:43:42;100782;;;7;100
49583;BME280;36329;48.816;44.624;2023-03-11T06:46:49;100787;;;7.1;100
49583;BME280;36329;48.816;44.624;2023-03-11T06:50:11;100791;;;7.4;100
49583;BME280;36329;48.816;44.624;2023-03-11T06:53:25;100785;;;7.6;100
49583;BME280;36329;48.816;44.624;2023-03-11T06:56:34;100798;;;7.6;100
49583;BME280;36329;48.816;44.624;2023-03-11T06:59:45;100795;;;7.7;100
49583;BME280;36329;48.816;44.624;2023-03-11T07:02:48;100794;;;7.7;100
49583;BME280;36329;48.816;44.624;2023-03-11T07:05:52;100790;;;7.8;100
49583;BME280;36329;48.816;44.624;2023-03-11T07:09:01;100789;;;8;100
49583;BME280;36329;48.816;44.624;2023-03-11T07:12:05;100781;;;8.1;100
49583;BME280;36329;48.816;44.624;2023-03-11T07:15:10;100782;;;8.1;100
49583;BME280;36329;48.816;44.624;2023-03-11T07:18:37;100785;;;7.9;100
49583;BME280;36329;48.816;44.624;2023-03-11T07:21:42;100785;;;7.8;100
49583;BME280;36329;48.816;44.624;2023-03-11T07:24:45;100784;;;7.9;100
49583;BME280;36329;48.816;44.624;2023-03-11T07:27:59;100772;;;8;100
49583;BME280;36329;48.816;44.624;2023-03-11T07:31:19;100776;;;8.4;100
49583;BME280;36329;48.816;44.624;2023-03-11T07:34:29;100774;;;8.7;100
49583;BME280;36329;48.816;44.624;2023-03-11T07:37:39;100763;;;9.2;100
49583;BME280;36329;48.816;44.624;2023-03-11T07:40:43;100769;;;9.4;99.3
49583;BME280;36329;48.816;44.624;2023-03-11T07:44:00;100764;;;9.8;98.4
49583;BME280;36329;48.816;44.624;2023-03-11T07:47:14;100759;;;9.9;97.3
49583;BME280;36329;48.816;44.624;2023-03-11T07:50:28;100753;;;10.6;92.4
49583;BME280;36329;48.816;44.624;2023-03-11T07:53:42;100746;;;10.9;91.1
49583;BME280;36329;48.816;44.624;2023-03-11T07:56:55;100748;;;11.3;88.5
49583;BME280;36329;48.816;44.624;2023-03-11T08:00:12;100755;;;11.7;83.7
49583;BME280;36329;48.816;44.624;2023-03-11T08:03:33;100747;;;11.5;84.4
49583;BME280;36329;48.816;44.624;2023-03-11T08:06:41;100754;;;11.7;85
49583;BME280;36329;48.816;44.624;2023-03-11T08:09:45;100756;;;10.8;87.7
49583;BME280;36329;48.816;44.624;2023-03-11T08:12:49;100755;;;10;94.2
49583;BME280;36329;48.816;44.624;2023-03-11T08:16:04;100753;;;9.6;98.7
49583;BME280;36329;48.816;44.624;2023-03-11T08:19:30;100747;;;9.4;99.9
49583;BME280;36329;48.816;44.624;2023-03-11T08:22:45;100750;;;9.3;100
49583;BME280;36329;48.816;44.624;2023-03-11T08:25:49;100752;;;9.1;100
49583;BME280;36329;48.816;44.624;2023-03-11T08:28:54;100748;;;8.8;100
49583;BME280;36329;48.816;44.624;2023-03-11T08:31:57;100741;;;8.7;100
49583;BME280;36329;48.816;44.624;2023-03-11T08:35:09;100743;;;8.9;100
49583;BME280;36329;48.816;44.624;2023-03-11T08:38:24;100747;;;9;100
49583;BME280;36329;48.816;44.624;2023-03-11T08:41:35;100744;;;9.2;100
49583;BME280;36329;48.816;44.624;2023-03-11T08:44:43;100747;;;9.1;100
49583;BME280;36329;48.816;44.624;2023-03-11T08:47:58;100747;;;8.9;100
49583;BME280;36329;48.816;44.624;2023-03-11T08:51:16;100751;;;8.9;100
49583;BME280;36329;48.816;44.624;2023-03-11T08:54:43;100763;;;9.1;100
49583;BME280;36329;48.816;44.624;2023-03-11T08:58:08;100758;;;9.1;100
49583;BME280;36329;48.816;44.624;2023-03-11T09:01:19;100755;;;9.1;100
49583;BME280;36329;48.816;44.624;2023-03-11T09:04:36;100751;;;9.1;100
49583;BME280;36329;48.816;44.624;2023-03-11T09:07:41;100745;;;9.3;100
49583;BME280;36329;48.816;44.624;2023-03-11T09:10:49;100743;;;9.2;100
49583;BME280;36329;48.816;44.624;2023-03-11T09:13:53;100739;;;9.1;100
49583;BME280;36329;48.816;44.624;2023-03-11T09:17:18;100738;;;9.3;100
49583;BME280;36329;48.816;44.624;2023-03-11T09:20:23;100742;;;9.3;100
49583;BME280;36329;48.816;44.624;2023-03-11T09:23:38;100743;;;9.2;100
49583;BME280;36329;48.816;44.624;2023-03-11T09:26:53;100738;;;9.3;100
49583;BME280;36329;48.816;44.624;2023-03-11T09:33:51;100732;;;9.6;100
49583;BME280;36329;48.816;44.624;2023-03-11T09:37:10;100726;;;9.7;100
49583;BME280;36329;48.816;44.624;2023-03-11T09:40:30;100723;;;9.5;100
49583;BME280;36329;48.816;44.624;2023-03-11T09:44:15;100717;;;9.7;100
49583;BME280;36329;48.816;44.624;2023-03-11T09:47:36;100716;;;9.6;100
49583;BME280;36329;48.816;44.624;2023-03-11T09:51:12;100717;;;9.6;100
49583;BME280;36329;48.816;44.624;2023-03-11T09:54:52;100716;;;10;100
49583;BME280;36329;48.816;44.624;2023-03-11T09:58:18;100708;;;10.3;100
49583;BME280;36329;48.816;44.624;2023-03-11T10:01:28;100716;;;10.4;100
49583;BME280;36329;48.816;44.624;2023-03-11T10:04:41;100711;;;10.3;100
49583;BME280;36329;48.816;44.624;2023-03-11T10:08:20;100712;;;10.6;100
49583;BME280;36329;48.816;44.624;2023-03-11T10:11:36;100714;;;10.6;99.5
49583;BME280;36329;48.816;44.624;2023-03-11T10:15:11;100717;;;11.3;96.5
49583;BME280;36329;48.816;44.624;2023-03-11T10:18:35;100702;;;11.4;95.4
49583;BME280;36329;48.816;44.624;2023-03-11T10:21:54;100694;;;11.6;93.6
49583;BME280;36329;48.816;44.624;2023-03-11T10:25:08;100699;;;11.6;93.7
49583;BME280;36329;48.816;44.624;2023-03-11T10:28:17;100695;;;11.5;93.1
49583;BME280;36329;48.816;44.624;2023-03-11T10:31:25;100703;;;11.3;93.9
49583;BME280;36329;48.816;44.624;2023-03-11T10:34:57;100703;;;11.1;95.1
49583;BME280;36329;48.816;44.624;2023-03-11T10:38:18;100708;;;10.8;99.2
49583;BME280;36329;48.816;44.624;2023-03-11T10:41:53;100697;;;10.6;100
49583;BME280;36329;48.816;44.624;2023-03-11T10:44:58;100697;;;10.7;100
49583;BME280;36329;48.816;44.624;2023-03-11T10:48:09;100697;;;11.1;99.4
49583;BME280;36329;48.816;44.624;2023-03-11T10:51:33;100687;;;11.3;97.4
49583;BME280;36329;48.816;44.624;2023-03-11T10:54:45;100681;;;11.8;97.1
49583;BME280;36329;48.816;44.624;2023-03-11T10:58:09;100686;;;12.4;90.6
49583;BME280;36329;48.816;44.624;2023-03-11T11:01:29;100684;;;12.6;88.8
49583;BME280;36329;48.816;44.624;2023-03-11T11:04:40;100681;;;12.6;89.1
49583;BME280;36329;48.816;44.624;2023-03-11T11:07:45;100669;;;12.6;88.9
49583;BME280;36329;48.816;44.624;2023-03-11T11:11:20;100677;;;12.6;89.7
49583;BME280;36329;48.816;44.624;2023-03-11T11:14:48;100673;;;13.1;85.5
49583;BME280;36329;48.816;44.624;2023-03-11T11:18:05;100666;;;13.8;81
49583;BME280;36329;48.816;44.624;2023-03-11T11:21:38;100657;;;14.3;77.2
49583;BME280;36329;48.816;44.624;2023-03-11T11:24:56;100657;;;14.2;77.4
49583;BME280;36329;48.816;44.624;2023-03-11T11:28:00;100659;;;14.1;78.3
49583;BME280;36329;48.816;44.624;2023-03-11T11:31:28;100655;;;14.4;76.3
49583;BME280;36329;48.816;44.624;2023-03-11T11:34:55;100651;;;14.4;76.6
49583;BME280;36329;48.816;44.624;2023-03-11T11:38:35;100653;;;14.5;75.4
49583;BME280;36329;48.816;44.624;2023-03-11T11:41:59;100645;;;14.3;76
49583;BME280;36329;48.816;44.624;2023-03-11T11:45:26;100640;;;14.3;75.7
49583;BME280;36329;48.816;44.624;2023-03-11T11:48:51;100645;;;14.4;75.7
49583;BME280;36329;48.816;44.624;2023-03-11T11:52:07;100652;;;14.4;75.7
49583;BME280;36329;48.816;44.624;2023-03-11T11:55:26;100656;;;14.4;74.8
49583;BME280;36329;48.816;44.624;2023-03-11T11:58:58;100664;;;14.4;75.3
49583;BME280;36329;48.816;44.624;2023-03-11T12:02:32;100670;;;14.1;77.9
49583;BME280;36329;48.816;44.624;2023-03-11T12:05:51;100671;;;13.3;83
49583;BME280;36329;48.816;44.624;2023-03-11T12:09:35;100663;;;13;85
49583;BME280;36329;48.816;44.624;2023-03-11T12:12:47;100670;;;12.7;87.3
49583;BME280;36329;48.816;44.624;2023-03-11T12:16:25;100675;;;12.8;87
49583;BME280;36329;48.816;44.624;2023-03-11T12:19:50;100673;;;12.8;87.7
49583;BME280;36329;48.816;44.624;2023-03-11T12:23:05;100676;;;12.4;90.4
49583;BME280;36329;48.816;44.624;2023-03-11T12:26:40;100674;;;12.5;91.3
49583;BME280;36329;48.816;44.624;2023-03-11T12:30:10;100668;;;12.4;91.4
49583;BME280;36329;48.816;44.624;2023-03-11T12:33:30;100666;;;12.7;90.7
49583;BME280;36329;48.816;44.624;2023-03-11T12:36:37;100659;;;12.9;89.8
49583;BME280;36329;48.816;44.624;2023-03-11T12:39:40;100660;;;13;89
49583;BME280;36329;48.816;44.624;2023-03-11T12:43:03;100660;;;12.9;88.8
49583;BME280;36329;48.816;44.624;2023-03-11T12:46:29;100663;;;13.2;87.9
49583;BME280;36329;48.816;44.624;2023-03-11T12:53:45;100659;;;13.4;87.8
49583;BME280;36329;48.816;44.624;2023-03-11T12:57:34;100664;;;13.5;86.6
49583;BME280;36329;48.816;44.624;2023-03-11T13:00:58;100652;;;13.6;85.8
49583;BME280;36329;48.816;44.624;2023-03-11T13:04:29;100653;;;13.6;86
49583;BME280;36329;48.816;44.624;2023-03-11T13:07:46;100652;;;13.1;88.9
49583;BME280;36329;48.816;44.624;2023-03-11T13:11:34;100647;;;12.9;90.4
49583;BME280;36329;48.816;44.624;2023-03-11T13:18:28;100656;;;12.3;94.9
49583;BME280;36329;48.816;44.624;2023-03-11T13:21:45;100646;;;12.6;94.1
49583;BME280;36329;48.816;44.624;2023-03-11T13:32:37;100649;;;13.1;89.7
49583;BME280;36329;48.816;44.624;2023-03-11T13:36:11;100655;;;13;89.5
49583;BME280;36329;48.816;44.624;2023-03-11T13:39:30;100656;;;13.1;89.1
49583;BME280;36329;48.816;44.624;2023-03-11T13:42:46;100644;;;13.1;88.6
49583;BME280;36329;48.816;44.624;2023-03-11T13:46:18;100643;;;13.2;88.3
49583;BME280;36329;48.816;44.624;2023-03-11T13:49:45;100644;;;12.9;88.9
49583;BME280;36329;48.816;44.624;2023-03-11T13:53:14;100645;;;12.9;89.4
49583;BME280;36329;48.816;44.624;2023-03-11T13:56:42;100644;;;12.9;89.3
49583;BME280;36329;48.816;44.624;2023-03-11T13:59:52;100651;;;12.9;89.1
49583;BME280;36329;48.816;44.624;2023-03-11T14:03:14;100650;;;12.8;89
49583;BME280;36329;48.816;44.624;2023-03-11T14:06:46;100652;;;12.7;90
49583;BME280;36329;48.816;44.624;2023-03-11T14:10:14;100652;;;12.7;89.8
49583;BME280;36329;48.816;44.624;2023-03-11T14:13:46;100650;;;12.8;90.1
49583;BME280;36329;48.816;44.624;2023-03-11T14:17:16;100647;;;12.7;90.2
49583;BME280;36329;48.816;44.624;2023-03-11T14:20:37;100652;;;12.6;91.3
49583;BME280;36329;48.816;44.624;2023-03-11T14:23:55;100648;;;12.5;91.8
49583;BME280;36329;48.816;44.624;2023-03-11T14:27:13;100645;;;12.5;92.2
49583;BME280;36329;48.816;44.624;2023-03-11T14:30:29;100647;;;12.4;92.4
49583;BME280;36329;48.816;44.624;2023-03-11T14:33:39;100646;;;12.5;92.5
49583;BME280;36329;48.816;44.624;2023-03-11T14:37:35;100646;;;12.4;93.4
49583;BME280;36329;48.816;44.624;2023-03-11T14:40:53;100649;;;12.5;93.2
49583;BME280;36329;48.816;44.624;2023-03-11T14:44:21;100646;;;12.5;93.4
49583;BME280;36329;48.816;44.624;2023-03-11T14:47:48;100650;;;12.4;92.5
49583;BME280;36329;48.816;44.624;2023-03-11T14:50:57;100657;;;12.4;93.1
49583;BME280;36329;48.816;44.624;2023-03-11T14:54:15;100647;;;12.3;92.9
49583;BME280;36329;48.816;44.624;2023-03-11T14:57:35;100647;;;12.1;93.9
49583;BME280;36329;48.816;44.624;2023-03-11T15:00:59;100654;;;12.1;94
49583;BME280;36329;48.816;44.624;2023-03-11T15:04:29;100654;;;12;97.1
49583;BME280;36329;48.816;44.624;2023-03-11T15:07:59;100645;;;11.9;97.2
49583;BME280;36329;48.816;44.624;2023-03-11T15:11:21;100646;;;11.8;96.3
49583;BME280;36329;48.816;44.624;2023-03-11T15:14:48;100648;;;11.7;99.9
49583;BME280;36329;48.816;44.624;2023-03-11T15:18:00;100652;;;11.8;99.7
49583;BME280;36329;48.816;44.624;2023-03-11T15:21:34;100653;;;11.9;99.5
49583;BME280;36329;48.816;44.624;2023-03-11T15:24:48;100658;;;11.9;99.4
49583;BME280;36329;48.816;44.624;2023-03-11T15:28:17;100662;;;11.8;100
49583;BME280;36329;48.816;44.624;2023-03-11T15:31:53;100664;;;12;100
49583;BME280;36329;48.816;44.624;2023-03-11T15:35:43;100678;;;12;100
49583;BME280;36329;48.816;44.624;2023-03-11T15:42:26;100682;;;11.9;100
49583;BME280;36329;48.816;44.624;2023-03-11T15:45:48;100679;;;11.8;100
49583;BME280;36329;48.816;44.624;2023-03-11T15:48:53;100681;;;11.8;100
49583;BME280;36329;48.816;44.624;2023-03-11T15:52:12;100680;;;11.7;100
49583;BME280;36329;48.816;44.624;2023-03-11T15:59:14;100678;;;11.8;100
49583;BME280;36329;48.816;44.624;2023-03-11T16:02:40;100680;;;11.8;100
49583;BME280;36329;48.816;44.624;2023-03-11T16:05:50;100678;;;11.8;100
49583;BME280;36329;48.816;44.624;2023-03-11T16:12:26;100683;;;11.6;100
49583;BME280;36329;48.816;44.624;2023-03-11T16:15:36;100677;;;11.6;100
49583;BME280;36329;48.816;44.624;2023-03-11T16:19:01;100678;;;11.6;100
49583;BME280;36329;48.816;44.624;2023-03-11T16:22:15;100682;;;11.6;100
49583;BME280;36329;48.816;44.624;2023-03-11T16:25:37;100678;;;11.4;100
49583;BME280;36329;48.816;44.624;2023-03-11T16:28:59;100677;;;11.3;100
49583;BME280;36329;48.816;44.624;2023-03-11T16:32:21;100677;;;11.2;100
49583;BME280;36329;48.816;44.624;2023-03-11T16:36:05;100681;;;11.3;100
49583;BME280;36329;48.816;44.624;2023-03-11T16:39:33;100677;;;11.1;100
49583;BME280;36329;48.816;44.624;2023-03-11T16:43:00;100675;;;11.2;100
49583;BME280;36329;48.816;44.624;2023-03-11T16:46:22;100673;;;11.2;100
49583;BME280;36329;48.816;44.624;2023-03-11T16:49:46;100672;;;11.3;100
49583;BME280;36329;48.816;44.624;2023-03-11T16:52:52;100672;;;11.3;100
49583;BME280;36329;48.816;44.624;2023-03-11T16:56:04;100671;;;11.1;100
49583;BME280;36329;48.816;44.624;2023-03-11T16:59:19;100672;;;10.9;100
49583;BME280;36329;48.816;44.624;2023-03-11T17:02:40;100675;;;11;100
49583;BME280;36329;48.816;44.624;2023-03-11T17:06:17;100671;;;10.9;100
49583;BME280;36329;48.816;44.624;2023-03-11T17:09:56;100663;;;11;100
49583;BME280;36329;48.816;44.624;2023-03-11T17:13:15;100664;;;10.8;100
49583;BME280;36329;48.816;44.624;2023-03-11T17:16:48;100672;;;10.8;100
49583;BME280;36329;48.816;44.624;2023-03-11T17:20:12;100667;;;10.7;100
49583;BME280;36329;48.816;44.624;2023-03-11T17:23:30;100662;;;10.8;100
49583;BME280;36329;48.816;44.624;2023-03-11T17:26:35;100665;;;10.8;100
49583;BME280;36329;48.816;44.624;2023-03-11T17:33:35;100665;;;11.1;100
49583;BME280;36329;48.816;44.624;2023-03-11T17:36:51;100659;;;10.8;100
49583;BME280;36329;48.816;44.624;2023-03-11T17:39:57;100656;;;10.9;100
49583;BME280;36329;48.816;44.624;2023-03-11T17:43:02;100652;;;10.8;100
49583;BME280;36329;48.816;44.624;2023-03-11T17:46:06;100658;;;10.9;100
49583;BME280;36329;48.816;44.624;2023-03-11T17:49:12;100650;;;10.8;100
49583;BME280;36329;48.816;44.624;2023-03-11T17:52:21;100650;;;10.7;100
49583;BME280;36329;48.816;44.624;2023-03-11T17:55:38;100644;;;10.8;100
49583;BME280;36329;48.816;44.624;2023-03-11T17:58:47;100655;;;10.7;100
49583;BME280;36329;48.816;44.624;2023-03-11T18:02:01;100651;;;10.6;100
49583;BME280;36329;48.816;44.624;2023-03-11T18:05:17;100654;;;10.5;100
49583;BME280;36329;48.816;44.624;2023-03-11T18:08:33;100650;;;10.5;100
49583;BME280;36329;48.816;44.624;2023-03-11T18:11:54;100647;;;10.6;100
49583;BME280;36329;48.816;44.624;2023-03-11T18:15:07;100649;;;10.8;100
49583;BME280;36329;48.816;44.624;2023-03-11T18:18:30;100647;;;10.6;100
49583;BME280;36329;48.816;44.624;2023-03-11T18:21:50;100647;;;10.6;100
49583;BME280;36329;48.816;44.624;2023-03-11T18:25:10;100651;;;10.4;100
49583;BME280;36329;48.816;44.624;2023-03-11T18:28:27;100652;;;10.3;100
49583;BME280;36329;48.816;44.624;2023-03-11T18:31:42;100649;;;10.3;100
49583;BME280;36329;48.816;44.624;2023-03-11T18:35:08;100646;;;10.3;100
49583;BME280;36329;48.816;44.624;2023-03-11T18:38:24;100642;;;10.4;100
49583;BME280;36329;48.816;44.624;2023-03-11T18:41:31;100638;;;10.3;100
49583;BME280;36329;48.816;44.624;2023-03-11T18:44:35;100634;;;10.3;100